Time;durP1;ratioP1;P1;durP2;ratioP2;P2;SDS_P1;SDS_P2;PMS_P1;PMS_P2;Temp;Humidity;BMP_temperature;BMP_pressure;BME280_temperature;BME280_humidity;BME280_pressure;Samples;Min_cycle;Max_cycle;Signal;HPM_P1;HPM_P2
2022/04/02 00:00:57;;;;;;;;;;;0.30;99.90;;;;;;4924726;29;19927;-71
2022/04/02 00:03:29;;;;;;;;;;;0.30;99.90;;;;;;4937431;28;19977;-71
2022/04/02 00:06:01;;;;;;;;;;;0.30;99.90;;;;;;4934189;29;20323;-71
2022/04/02 00:08:34;;;;;;;;;;;0.30;99.90;;;;;;4918097;29;20313;-71
2022/04/02 00:11:05;;;;;;;;;;;0.30;99.90;;;;;;4922695;29;19929;-71
2022/04/02 00:13:38;;;;;;;;;;;0.30;99.90;;;;;;4940062;28;19922;-71
2022/04/02 00:16:05;;;;;;;;;;;0.30;99.90;;;;;;4933504;29;20461;-71
2022/04/02 00:18:38;;;;;;;;;;;0.40;99.90;;;;;;4917823;29;20298;-71
2022/04/02 00:21:10;;;;;;;;;;;0.40;99.90;;;;;;4923494;29;19927;-71
2022/04/02 00:23:46;;;;;;;;;;;0.40;99.90;;;;;;4918971;29;19923;-71
2022/04/02 00:26:13;;;;;;;;;;;0.40;99.90;;;;;;4936448;29;19956;-71
2022/04/02 00:28:48;;;;;;;;;;;0.40;99.90;;;;;;4931593;29;19934;-71
2022/04/02 00:31:21;;;;;;;;;;;0.40;99.90;;;;;;4910980;29;19922;-71
2022/04/02 00:33:52;;;;;;;;;;;0.40;99.90;;;;;;4941564;29;20043;-71
2022/04/02 00:36:24;;;;;;;;;;;0.40;99.90;;;;;;4934316;29;19923;-71
2022/04/02 00:38:56;;;;;;;;;;;0.40;99.90;;;;;;4932054;29;19930;-70
2022/04/02 00:41:23;;;;;;;;;;;0.40;99.90;;;;;;4925120;29;20408;-71
2022/04/02 00:44:14;;;;;;;;;;;0.40;99.90;;;;;;4925614;29;19923;-71
2022/04/02 00:46:42;;;;;;;;;;;0.30;99.90;;;;;;4932046;29;19922;-71
2022/04/02 00:49:14;;;;;;;;;;;0.40;99.90;;;;;;4916647;29;19931;-70
2022/04/02 00:51:49;;;;;;;;;;;0.40;99.90;;;;;;4924607;29;19974;-71
2022/04/02 00:54:16;;;;;;;;;;;0.40;99.90;;;;;;4926752;29;19930;-71
2022/04/02 00:56:48;;;;;;;;;;;0.40;99.90;;;;;;4916682;29;19931;-71
2022/04/02 00:59:20;;;;;;;;;;;0.40;99.90;;;;;;4903628;29;20030;-71
2022/04/02 01:01:46;;;;;;;;;;;0.50;99.90;;;;;;4924546;29;20370;-71
2022/04/02 01:04:13;;;;;;;;;;;0.50;99.90;;;;;;4941162;29;20350;-71
2022/04/02 01:06:42;;;;;;;;;;;0.50;99.90;;;;;;4899783;29;19927;-71
2022/04/02 01:09:18;;;;;;;;;;;0.50;99.90;;;;;;4914839;29;20133;-71
2022/04/02 01:11:54;;;;;;;;;;;0.50;99.90;;;;;;4913010;29;19922;-71
2022/04/02 01:14:28;;;;;;;;;;;0.50;99.90;;;;;;4945946;29;19926;-70
2022/04/02 01:17:12;;;;;;;;;;;0.50;99.90;;;;;;4933544;29;19954;-71
2022/04/02 01:19:45;;;;;;;;;;;0.50;99.90;;;;;;4915704;29;20033;-70
2022/04/02 01:22:24;;;;;;;;;;;0.50;99.90;;;;;;4928038;29;19985;-71
2022/04/02 01:24:59;;;;;;;;;;;0.50;99.90;;;;;;4941262;28;20005;-71
2022/04/02 01:27:31;;;;;;;;;;;0.50;99.90;;;;;;4933659;29;19934;-71
2022/04/02 01:29:59;;;;;;;;;;;0.60;99.90;;;;;;4930117;29;19934;-71
2022/04/02 01:32:30;;;;;;;;;;;0.60;99.90;;;;;;4934840;29;20305;-71
2022/04/02 01:35:08;;;;;;;;;;;0.60;99.90;;;;;;4944999;29;20266;-71
2022/04/02 01:37:49;;;;;;;;;;;0.60;99.90;;;;;;4933454;29;20409;-71
2022/04/02 01:40:23;;;;;;;;;;;0.60;99.90;;;;;;4929684;29;19926;-71
2022/04/02 01:42:51;;;;;;;;;;;0.60;99.90;;;;;;4929926;29;19927;-71
2022/04/02 01:45:22;;;;;;;;;;;0.60;99.90;;;;;;4936867;29;20295;-71
2022/04/02 01:47:58;;;;;;;;;;;0.60;99.90;;;;;;4914143;29;20374;-71
2022/04/02 01:50:43;;;;;;;;;;;0.60;99.90;;;;;;4931680;29;19926;-71
2022/04/02 01:53:10;;;;;;;;;;;0.60;99.90;;;;;;4936274;29;19926;-71
2022/04/02 01:55:42;;;;;;;;;;;0.60;99.90;;;;;;4935502;29;19927;-71
2022/04/02 01:58:46;;;;;;;;;;;0.60;99.90;;;;;;4904952;29;19935;-71
2022/04/02 02:01:18;;;;;;;;;;;0.60;99.90;;;;;;4931569;29;19922;-71
2022/04/02 02:03:50;;;;;;;;;;;0.70;99.90;;;;;;4922237;29;19953;-71
2022/04/02 02:06:24;;;;;;;;;;;0.70;99.90;;;;;;4929880;29;20017;-71
2022/04/02 02:08:56;;;;;;;;;;;0.60;99.90;;;;;;4914671;29;20358;-71
2022/04/02 02:11:36;;;;;;;;;;;0.60;99.90;;;;;;4912434;29;19926;-71
2022/04/02 02:14:09;;;;;;;;;;;0.60;99.90;;;;;;4935058;29;21261;-71
2022/04/02 02:16:44;;;;;;;;;;;0.60;99.90;;;;;;4913912;29;20275;-71
2022/04/02 02:19:11;;;;;;;;;;;0.60;99.90;;;;;;4913800;29;19951;-71
2022/04/02 02:21:39;;;;;;;;;;;0.70;99.90;;;;;;4928088;29;19922;-71
2022/04/02 02:24:17;;;;;;;;;;;0.60;99.90;;;;;;4948001;28;20449;-71
2022/04/02 02:26:44;;;;;;;;;;;0.60;99.90;;;;;;4913649;29;20287;-71
2022/04/02 02:29:18;;;;;;;;;;;0.60;99.90;;;;;;4901741;29;19923;-71
2022/04/02 02:31:46;;;;;;;;;;;0.60;99.90;;;;;;4921930;29;19927;-71
2022/04/02 02:37:09;;;;;;;;;;;0.60;99.90;;;;;;4933072;29;19978;-71
2022/04/02 02:39:51;;;;;;;;;;;0.50;99.90;;;;;;4929172;29;19949;-71
2022/04/02 02:42:24;;;;;;;;;;;0.60;99.90;;;;;;4930170;29;19926;-71
2022/04/02 02:44:59;;;;;;;;;;;0.60;99.90;;;;;;4936106;29;19931;-71
2022/04/02 02:47:32;;;;;;;;;;;0.60;99.90;;;;;;4933725;29;19923;-71
2022/04/02 02:50:04;;;;;;;;;;;0.50;99.90;;;;;;4928118;29;19999;-71
2022/04/02 02:52:51;;;;;;;;;;;0.50;99.90;;;;;;4922109;29;19930;-71
2022/04/02 02:55:23;;;;;;;;;;;0.50;99.90;;;;;;4929016;29;20014;-71
2022/04/02 02:57:58;;;;;;;;;;;0.50;99.90;;;;;;4913288;29;20346;-70
2022/04/02 03:00:30;;;;;;;;;;;0.50;99.90;;;;;;4913220;29;20021;-71
2022/04/02 03:03:00;;;;;;;;;;;0.40;99.90;;;;;;4938283;29;19922;-71
2022/04/02 03:05:33;;;;;;;;;;;0.40;99.90;;;;;;4934619;29;19994;-71
2022/04/02 03:08:09;;;;;;;;;;;0.50;99.90;;;;;;4913277;29;20444;-70
2022/04/02 03:10:47;;;;;;;;;;;0.50;99.90;;;;;;4930122;29;19927;-71
2022/04/02 03:13:24;;;;;;;;;;;0.50;99.90;;;;;;4933512;29;19927;-71
2022/04/02 03:15:59;;;;;;;;;;;0.50;99.90;;;;;;4935790;29;20271;-71
2022/04/02 03:18:31;;;;;;;;;;;0.50;99.90;;;;;;4929548;29;19927;-71
2022/04/02 03:21:07;;;;;;;;;;;0.50;99.90;;;;;;4904332;29;20344;-70
2022/04/02 03:23:39;;;;;;;;;;;0.50;99.90;;;;;;4936806;29;19923;-71
2022/04/02 03:26:06;;;;;;;;;;;0.50;99.90;;;;;;4913758;29;20165;-71
2022/04/02 03:28:40;;;;;;;;;;;0.50;99.90;;;;;;4913776;29;20374;-71
2022/04/02 03:31:15;;;;;;;;;;;0.50;99.90;;;;;;4917720;29;19954;-71
2022/04/02 03:33:49;;;;;;;;;;;0.40;99.90;;;;;;4916331;29;19923;-71
2022/04/02 03:36:16;;;;;;;;;;;0.40;99.90;;;;;;4913883;29;19923;-71
2022/04/02 03:38:48;;;;;;;;;;;0.50;99.90;;;;;;4913683;29;19924;-71
2022/04/02 03:41:20;;;;;;;;;;;0.50;99.90;;;;;;4922601;29;19973;-70
2022/04/02 03:43:51;;;;;;;;;;;0.50;99.90;;;;;;4937023;29;19978;-71
2022/04/02 03:49:13;;;;;;;;;;;0.50;99.90;;;;;;4917054;29;19926;-71
2022/04/02 03:51:45;;;;;;;;;;;0.50;99.90;;;;;;4919358;29;19998;-71
2022/04/02 03:54:17;;;;;;;;;;;0.50;99.90;;;;;;4930573;29;20009;-71
2022/04/02 03:56:54;;;;;;;;;;;0.50;99.90;;;;;;4934841;29;19934;-71
2022/04/02 03:59:26;;;;;;;;;;;0.40;99.90;;;;;;4932744;29;20018;-71
2022/04/02 04:01:56;;;;;;;;;;;0.40;99.90;;;;;;4932366;29;19930;-71
2022/04/02 04:04:28;;;;;;;;;;;0.40;99.90;;;;;;4932221;29;19922;-71
2022/04/02 04:07:00;;;;;;;;;;;0.40;99.90;;;;;;4935910;29;20005;-71
2022/04/02 04:09:28;;;;;;;;;;;0.40;99.90;;;;;;4916875;29;19931;-71
2022/04/02 04:12:00;;;;;;;;;;;0.40;99.90;;;;;;4918731;29;19930;-71
2022/04/02 04:14:36;;;;;;;;;;;0.40;99.90;;;;;;4935310;29;19985;-71
2022/04/02 04:17:08;;;;;;;;;;;0.40;99.90;;;;;;4935660;29;19926;-71
2022/04/02 04:19:40;;;;;;;;;;;0.40;99.90;;;;;;4932527;29;19930;-71
2022/04/02 04:22:07;;;;;;;;;;;0.30;99.90;;;;;;4915518;29;19930;-71
2022/04/02 04:24:39;;;;;;;;;;;0.30;99.90;;;;;;4942800;29;19922;-71
2022/04/02 04:27:11;;;;;;;;;;;0.30;99.90;;;;;;4936708;29;19961;-71
2022/04/02 04:29:41;;;;;;;;;;;0.30;99.90;;;;;;4932157;29;19923;-71
2022/04/02 04:32:08;;;;;;;;;;;0.30;99.90;;;;;;4933404;29;19929;-71
2022/04/02 04:34:40;;;;;;;;;;;0.40;99.90;;;;;;4934771;29;20374;-71
2022/04/02 04:37:15;;;;;;;;;;;0.40;99.90;;;;;;4931145;29;19933;-71
2022/04/02 04:39:48;;;;;;;;;;;0.40;99.90;;;;;;4931274;29;20009;-71
2022/04/02 04:42:16;;;;;;;;;;;0.30;99.90;;;;;;4923683;29;19930;-71
2022/04/02 04:44:52;;;;;;;;;;;0.30;99.90;;;;;;4917739;29;20666;-71
2022/04/02 04:47:25;;;;;;;;;;;0.30;99.90;;;;;;4942163;29;19926;-70
2022/04/02 04:49:57;;;;;;;;;;;0.30;99.90;;;;;;4931764;29;20294;-71
2022/04/02 04:52:31;;;;;;;;;;;0.30;99.90;;;;;;4920872;29;19934;-71
2022/04/02 04:55:05;;;;;;;;;;;0.20;99.90;;;;;;4931649;29;20009;-70
2022/04/02 04:57:37;;;;;;;;;;;0.20;99.90;;;;;;4934704;29;19984;-71
2022/04/02 05:00:15;;;;;;;;;;;0.20;99.90;;;;;;4933880;29;20338;-71
2022/04/02 05:02:47;;;;;;;;;;;0.20;99.90;;;;;;4934508;29;19927;-70
2022/04/02 05:05:19;;;;;;;;;;;0.20;99.90;;;;;;4934574;29;19938;-71
2022/04/02 05:07:51;;;;;;;;;;;0.10;99.90;;;;;;4935886;29;19927;-70
2022/04/02 05:10:24;;;;;;;;;;;0.20;99.90;;;;;;4931839;29;19933;-71
2022/04/02 05:12:57;;;;;;;;;;;0.20;99.90;;;;;;4932757;29;20366;-71
2022/04/02 05:15:25;;;;;;;;;;;0.20;99.90;;;;;;4925055;29;19926;-71
2022/04/02 05:17:58;;;;;;;;;;;0.20;99.90;;;;;;4919508;29;19923;-71
2022/04/02 05:20:31;;;;;;;;;;;0.20;99.90;;;;;;4934553;29;20309;-71
2022/04/02 05:22:58;;;;;;;;;;;0.10;99.90;;;;;;4937433;29;19969;-72
2022/04/02 05:25:30;;;;;;;;;;;0.20;99.90;;;;;;4915929;29;20270;-71
2022/04/02 05:28:06;;;;;;;;;;;0.20;99.90;;;;;;4916574;29;19930;-71
2022/04/02 05:30:38;;;;;;;;;;;0.20;99.90;;;;;;4915953;29;20018;-75
2022/04/02 05:33:09;;;;;;;;;;;0.20;99.90;;;;;;4917765;29;19930;-71
2022/04/02 05:35:41;;;;;;;;;;;0.10;99.90;;;;;;4933010;29;19973;-71
2022/04/02 05:38:13;;;;;;;;;;;0.20;99.90;;;;;;4952034;29;20262;-71
2022/04/02 05:40:44;;;;;;;;;;;0.20;99.90;;;;;;4925476;29;19929;-71
2022/04/02 05:43:16;;;;;;;;;;;0.20;99.90;;;;;;4922992;29;19929;-71
2022/04/02 05:45:48;;;;;;;;;;;0.20;99.90;;;;;;4942998;29;20501;-71
2022/04/02 05:48:20;;;;;;;;;;;0.20;99.90;;;;;;4941111;29;19929;-71
2022/04/02 05:50:47;;;;;;;;;;;0.20;99.90;;;;;;4928774;29;19933;-71
2022/04/02 05:53:19;;;;;;;;;;;0.20;99.90;;;;;;4929345;29;20009;-71
2022/04/02 05:55:49;;;;;;;;;;;0.30;99.90;;;;;;4911134;29;19927;-71
2022/04/02 05:58:20;;;;;;;;;;;0.30;99.90;;;;;;4940873;29;19938;-71
2022/04/02 06:00:52;;;;;;;;;;;0.30;99.90;;;;;;4940119;28;19927;-71
2022/04/02 06:03:25;;;;;;;;;;;0.30;99.90;;;;;;4935028;29;19970;-71
2022/04/02 06:05:53;;;;;;;;;;;0.30;99.90;;;;;;4919482;29;20401;-72
2022/04/02 06:08:20;;;;;;;;;;;0.40;99.90;;;;;;4911620;29;19967;-71
2022/04/02 06:10:47;;;;;;;;;;;0.40;99.90;;;;;;4932853;29;19931;-71
2022/04/02 06:13:15;;;;;;;;;;;0.40;99.90;;;;;;4934277;29;19926;-71
2022/04/02 06:15:43;;;;;;;;;;;0.40;99.90;;;;;;4931312;29;20390;-72
2022/04/02 06:18:18;;;;;;;;;;;0.40;99.90;;;;;;4929202;29;20449;-71
2022/04/02 06:20:45;;;;;;;;;;;0.40;99.90;;;;;;4929043;29;19969;-71
2022/04/02 06:23:13;;;;;;;;;;;0.40;99.90;;;;;;4934968;29;19934;-71
2022/04/02 06:25:40;;;;;;;;;;;0.50;99.90;;;;;;4941020;29;19923;-71
2022/04/02 06:28:12;;;;;;;;;;;0.50;99.90;;;;;;4926993;29;20017;-71
2022/04/02 06:30:39;;;;;;;;;;;0.50;99.90;;;;;;4927917;29;20025;-71
2022/04/02 06:33:06;;;;;;;;;;;0.60;99.90;;;;;;4936367;29;19943;-71
2022/04/02 06:35:33;;;;;;;;;;;0.60;99.90;;;;;;4917467;29;19926;-71
2022/04/02 06:38:05;;;;;;;;;;;0.60;99.90;;;;;;4939630;29;20058;-71
2022/04/02 06:40:37;;;;;;;;;;;0.70;99.90;;;;;;4930253;29;20521;-72
2022/04/02 06:43:08;;;;;;;;;;;0.70;99.90;;;;;;4939062;29;19922;-72
2022/04/02 06:45:58;;;;;;;;;;;0.70;99.90;;;;;;4924056;29;19923;-72
2022/04/02 06:48:24;;;;;;;;;;;0.80;99.90;;;;;;4929105;29;19922;-72
2022/04/02 06:50:56;;;;;;;;;;;0.80;99.90;;;;;;4939930;28;20616;-72
2022/04/02 06:53:28;;;;;;;;;;;0.80;99.90;;;;;;4929396;29;19923;-71
2022/04/02 06:56:00;;;;;;;;;;;0.90;99.90;;;;;;4935539;29;20024;-72
2022/04/02 06:58:33;;;;;;;;;;;0.90;99.90;;;;;;4914957;29;20557;-71
2022/04/02 07:01:00;;;;;;;;;;;0.90;99.90;;;;;;4918367;29;19923;-71
2022/04/02 07:03:33;;;;;;;;;;;0.80;99.90;;;;;;4916467;29;20302;-71
2022/04/02 07:06:05;;;;;;;;;;;0.80;99.90;;;;;;4924397;29;19969;-72
2022/04/02 07:08:32;;;;;;;;;;;0.80;99.90;;;;;;4914086;29;20079;-72
2022/04/02 07:10:58;;;;;;;;;;;0.80;99.90;;;;;;4930100;29;19923;-72
2022/04/02 07:13:30;;;;;;;;;;;0.90;99.90;;;;;;4932290;29;19929;-71
2022/04/02 07:16:02;;;;;;;;;;;0.90;99.90;;;;;;4934449;29;20286;-72
2022/04/02 07:18:35;;;;;;;;;;;0.80;99.90;;;;;;4928007;29;19923;-73
2022/04/02 07:21:02;;;;;;;;;;;0.90;99.90;;;;;;4915404;29;19922;-71
2022/04/02 07:23:29;;;;;;;;;;;0.80;99.90;;;;;;4929545;29;19946;-72
2022/04/02 07:26:03;;;;;;;;;;;0.80;99.90;;;;;;4921621;29;20457;-72
2022/04/02 07:28:36;;;;;;;;;;;0.90;99.90;;;;;;4942837;29;20400;-72
2022/04/02 07:31:03;;;;;;;;;;;0.80;99.90;;;;;;4931700;29;20022;-72
2022/04/02 07:33:29;;;;;;;;;;;0.90;99.90;;;;;;4932380;29;20365;-72
2022/04/02 07:36:08;;;;;;;;;;;0.90;99.90;;;;;;4933753;29;19923;-72
2022/04/02 07:38:50;;;;;;;;;;;0.90;99.90;;;;;;4930289;29;20567;-72
2022/04/02 07:41:24;;;;;;;;;;;0.90;99.90;;;;;;4933166;29;19931;-72
2022/04/02 07:44:07;;;;;;;;;;;0.90;99.90;;;;;;4930429;29;19922;-71
2022/04/02 07:46:41;;;;;;;;;;;0.90;99.90;;;;;;4950237;28;19945;-71
2022/04/02 07:49:18;;;;;;;;;;;0.90;99.90;;;;;;4922756;29;20365;-72
2022/04/02 07:51:52;;;;;;;;;;;0.90;99.90;;;;;;4939699;28;20386;-72
2022/04/02 07:54:26;;;;;;;;;;;0.90;99.90;;;;;;4923766;29;19978;-71
2022/04/02 07:57:03;;;;;;;;;;;0.90;99.90;;;;;;4937504;29;19923;-71
2022/04/02 07:59:39;;;;;;;;;;;0.90;99.90;;;;;;4945030;29;19929;-71
2022/04/02 08:02:54;;;;;;;;;;;0.80;99.90;;;;;;4925008;29;19933;-72
2022/04/02 08:04:59;;;;;;;;;;;0.80;99.90;;;;;;4923901;29;19922;-72
2022/04/02 08:07:28;;;;;;;;;;;0.80;99.90;;;;;;4927763;29;20377;-72
2022/04/02 08:09:56;;;;;;;;;;;0.90;99.90;;;;;;4935006;29;19933;-72
2022/04/02 08:12:28;;;;;;;;;;;0.90;99.90;;;;;;4927029;29;20349;-72
2022/04/02 08:14:55;;;;;;;;;;;0.90;99.90;;;;;;4933873;29;19927;-72
2022/04/02 08:17:26;;;;;;;;;;;0.90;99.90;;;;;;4931645;29;19926;-72
2022/04/02 08:20:01;;;;;;;;;;;1.00;99.90;;;;;;4933301;29;19930;-72
2022/04/02 08:22:28;;;;;;;;;;;1.10;99.90;;;;;;4932250;29;19923;-72
2022/04/02 08:24:56;;;;;;;;;;;1.10;99.90;;;;;;4935180;29;19929;-73
2022/04/02 08:27:38;;;;;;;;;;;1.10;99.90;;;;;;4916153;29;19923;-72
2022/04/02 08:30:11;;;;;;;;;;;1.20;99.90;;;;;;4928111;29;19922;-72
2022/04/02 08:32:49;;;;;;;;;;;1.20;99.90;;;;;;4932291;29;20378;-72
2022/04/02 08:35:20;;;;;;;;;;;1.20;99.90;;;;;;4935094;29;19970;-72
2022/04/02 08:37:51;;;;;;;;;;;1.20;99.90;;;;;;4935287;29;19961;-72
2022/04/02 08:40:38;;;;;;;;;;;1.20;99.90;;;;;;4918957;29;19923;-72
2022/04/02 08:43:13;;;;;;;;;;;1.20;99.90;;;;;;4926308;29;19923;-72
2022/04/02 08:45:48;;;;;;;;;;;1.30;99.90;;;;;;4936824;29;20449;-73
2022/04/02 08:48:22;;;;;;;;;;;1.30;99.90;;;;;;4929141;29;19929;-72
2022/04/02 08:51:06;;;;;;;;;;;1.30;99.90;;;;;;4934546;29;19922;-73
2022/04/02 08:53:50;;;;;;;;;;;1.30;99.90;;;;;;4924224;29;20013;-73
2022/04/02 08:56:24;;;;;;;;;;;1.40;99.90;;;;;;4928390;29;19970;-73
2022/04/02 08:58:58;;;;;;;;;;;1.50;99.90;;;;;;4917983;29;20021;-73
2022/04/02 09:01:48;;;;;;;;;;;1.50;99.90;;;;;;4917922;29;20026;-73
2022/04/02 09:04:39;;;;;;;;;;;1.60;99.90;;;;;;4936087;29;19970;-73
2022/04/02 09:07:10;;;;;;;;;;;1.60;99.90;;;;;;4928262;29;19966;-74
2022/04/02 09:10:04;;;;;;;;;;;1.60;99.90;;;;;;4913256;29;20029;-73
2022/04/02 09:12:44;;;;;;;;;;;1.60;99.90;;;;;;4923554;29;19923;-73
2022/04/02 09:15:12;;;;;;;;;;;1.60;99.90;;;;;;4933759;29;19994;-73
2022/04/02 09:18:00;;;;;;;;;;;1.60;99.90;;;;;;4915747;29;20030;-74
2022/04/02 09:20:35;;;;;;;;;;;1.60;99.90;;;;;;4905143;29;19946;-73
2022/04/02 09:23:01;;;;;;;;;;;1.60;99.90;;;;;;4931394;29;19933;-74
2022/04/02 09:25:42;;;;;;;;;;;1.70;99.90;;;;;;4940070;29;20338;-73
2022/04/02 09:28:26;;;;;;;;;;;1.80;99.90;;;;;;4914842;29;19971;-73
2022/04/02 09:31:04;;;;;;;;;;;1.80;99.90;;;;;;4915360;29;20025;-74
2022/04/02 09:33:31;;;;;;;;;;;1.80;99.90;;;;;;4933093;29;20432;-73
2022/04/02 09:36:21;;;;;;;;;;;1.80;99.90;;;;;;4929708;29;19933;-73
2022/04/02 09:39:06;;;;;;;;;;;1.80;99.90;;;;;;4930500;29;19923;-73
2022/04/02 09:41:51;;;;;;;;;;;1.90;99.90;;;;;;4919143;29;20378;-73
2022/04/02 09:44:29;;;;;;;;;;;2.00;99.90;;;;;;4934894;29;19922;-74
2022/04/02 09:47:03;;;;;;;;;;;2.10;99.90;;;;;;4933741;29;20329;-74
2022/04/02 09:49:48;;;;;;;;;;;2.10;99.90;;;;;;4935633;29;19922;-74
2022/04/02 09:52:20;;;;;;;;;;;2.10;99.90;;;;;;4936010;29;19929;-74
2022/04/02 09:55:03;;;;;;;;;;;2.00;99.90;;;;;;4949960;29;19945;-74
2022/04/02 09:57:53;;;;;;;;;;;1.90;99.90;;;;;;4954352;28;20013;-74
2022/04/02 10:00:20;;;;;;;;;;;1.90;99.90;;;;;;4923900;29;19927;-74
2022/04/02 10:03:00;;;;;;;;;;;1.90;99.90;;;;;;4923262;29;19922;-74
2022/04/02 10:05:35;;;;;;;;;;;1.80;99.90;;;;;;4917109;29;19973;-75
2022/04/02 10:08:26;;;;;;;;;;;1.80;99.90;;;;;;4914451;29;20428;-75
2022/04/02 10:10:55;;;;;;;;;;;1.90;99.90;;;;;;4902890;29;19923;-74
2022/04/02 10:13:30;;;;;;;;;;;2.00;99.90;;;;;;4914595;29;19933;-74
2022/04/02 10:16:03;;;;;;;;;;;2.00;99.90;;;;;;4950698;29;19998;-74
2022/04/02 10:18:36;;;;;;;;;;;2.20;99.90;;;;;;4952487;29;19922;-74
2022/04/02 10:21:09;;;;;;;;;;;2.20;99.90;;;;;;4942720;28;19927;-74
2022/04/02 10:23:44;;;;;;;;;;;2.30;99.90;;;;;;4950272;29;19981;-74
2022/04/02 10:26:18;;;;;;;;;;;2.30;99.90;;;;;;4953557;28;20016;-74
2022/04/02 10:28:54;;;;;;;;;;;2.30;99.90;;;;;;4950585;29;19929;-74
2022/04/02 10:31:39;;;;;;;;;;;2.10;99.90;;;;;;4929142;29;19922;-74
2022/04/02 10:34:23;;;;;;;;;;;2.00;99.90;;;;;;4940854;29;19923;-74
2022/04/02 10:36:54;;;;;;;;;;;2.00;99.90;;;;;;4933166;29;20441;-74
2022/04/02 10:39:23;;;;;;;;;;;1.90;99.90;;;;;;4934978;29;19927;-74
2022/04/02 10:42:00;;;;;;;;;;;1.80;99.90;;;;;;4930559;29;19926;-76
2022/04/02 10:44:39;;;;;;;;;;;1.70;99.90;;;;;;4944281;29;19922;-75
2022/04/02 10:47:12;;;;;;;;;;;1.60;99.90;;;;;;4933989;29;20546;-75
2022/04/02 10:49:39;;;;;;;;;;;1.50;99.90;;;;;;4917103;29;19933;-75
2022/04/02 10:52:13;;;;;;;;;;;1.50;99.90;;;;;;4915467;29;19954;-75
2022/04/02 10:54:40;;;;;;;;;;;1.50;99.90;;;;;;4913731;29;19929;-75
2022/04/02 10:57:12;;;;;;;;;;;1.50;99.90;;;;;;4941317;29;20472;-75
2022/04/02 10:59:44;;;;;;;;;;;1.60;99.90;;;;;;4938331;29;19958;-75
2022/04/02 11:02:23;;;;;;;;;;;1.70;99.90;;;;;;4931632;29;19923;-75
2022/04/02 11:04:57;;;;;;;;;;;1.70;99.90;;;;;;4927970;29;20279;-75
2022/04/02 11:07:34;;;;;;;;;;;1.70;99.90;;;;;;4921844;29;20362;-75
2022/04/02 11:10:07;;;;;;;;;;;1.80;99.90;;;;;;4931413;28;19981;-75
2022/04/02 11:12:45;;;;;;;;;;;1.80;99.90;;;;;;4920644;29;19926;-75
2022/04/02 11:15:12;;;;;;;;;;;1.70;99.90;;;;;;4927597;29;19922;-75
2022/04/02 11:17:46;;;;;;;;;;;1.80;99.90;;;;;;4936850;29;19945;-75
2022/04/02 11:20:25;;;;;;;;;;;1.70;99.90;;;;;;4947985;28;19930;-75
2022/04/02 11:23:03;;;;;;;;;;;1.80;99.90;;;;;;4930349;29;20445;-75
2022/04/02 11:25:34;;;;;;;;;;;1.70;99.90;;;;;;4938638;29;19923;-75
2022/04/02 11:28:09;;;;;;;;;;;1.70;99.90;;;;;;4932862;29;19930;-75
2022/04/02 11:30:43;;;;;;;;;;;1.70;99.90;;;;;;4960498;28;19978;-75
2022/04/02 11:33:14;;;;;;;;;;;1.80;99.90;;;;;;4920813;29;20351;-75
2022/04/02 11:35:57;;;;;;;;;;;1.80;99.90;;;;;;4916803;29;20301;-75
2022/04/02 11:38:34;;;;;;;;;;;1.70;99.90;;;;;;4917615;29;20074;-75
2022/04/02 11:41:10;;;;;;;;;;;1.70;99.90;;;;;;4918570;29;19923;-75
2022/04/02 11:43:38;;;;;;;;;;;1.80;99.90;;;;;;4924952;29;19929;-75
2022/04/02 11:46:06;;;;;;;;;;;1.70;99.90;;;;;;4951731;29;19926;-75
2022/04/02 11:48:38;;;;;;;;;;;1.80;99.90;;;;;;4953020;29;19922;-75
2022/04/02 11:51:10;;;;;;;;;;;1.80;99.90;;;;;;4941971;28;20018;-75
2022/04/02 11:53:37;;;;;;;;;;;1.80;99.90;;;;;;4919184;29;19923;-75
2022/04/02 11:56:21;;;;;;;;;;;1.80;99.90;;;;;;4923010;29;19954;-75
2022/04/02 11:58:48;;;;;;;;;;;1.80;99.90;;;;;;4927132;29;19929;-75
2022/04/02 12:01:14;;;;;;;;;;;1.90;99.90;;;;;;4934766;29;20381;-74
2022/04/02 12:03:46;;;;;;;;;;;2.00;99.90;;;;;;4943527;29;19929;-75
2022/04/02 12:06:13;;;;;;;;;;;1.90;99.90;;;;;;4933736;29;19946;-77
2022/04/02 12:08:41;;;;;;;;;;;1.90;99.90;;;;;;4914102;29;20014;-74
2022/04/02 12:11:22;;;;;;;;;;;2.00;99.90;;;;;;4951481;28;19950;-75
2022/04/02 12:13:55;;;;;;;;;;;2.00;99.90;;;;;;4933489;29;20022;-75
2022/04/02 12:16:26;;;;;;;;;;;2.10;99.90;;;;;;4930192;29;19966;-75
2022/04/02 12:18:58;;;;;;;;;;;2.10;99.90;;;;;;4920104;29;19951;-75
2022/04/02 12:21:32;;;;;;;;;;;2.20;99.90;;;;;;4926753;29;20509;-75
2022/04/02 12:24:02;;;;;;;;;;;2.30;99.90;;;;;;4941011;29;20009;-74
2022/04/02 12:26:34;;;;;;;;;;;2.30;99.90;;;;;;4917362;29;19930;-74
2022/04/02 12:29:06;;;;;;;;;;;2.30;99.90;;;;;;4913833;29;19997;-75
2022/04/02 12:31:48;;;;;;;;;;;2.30;99.90;;;;;;4919276;29;19978;-74
2022/04/02 12:34:21;;;;;;;;;;;2.00;99.90;;;;;;4942555;29;19927;-75
2022/04/02 12:37:00;;;;;;;;;;;1.80;99.90;;;;;;4916520;29;19930;-74
2022/04/02 12:39:32;;;;;;;;;;;1.70;99.90;;;;;;4915522;29;19922;-74
2022/04/02 12:42:04;;;;;;;;;;;1.60;99.90;;;;;;4926894;29;20006;-74
2022/04/02 12:44:36;;;;;;;;;;;1.50;99.90;;;;;;4948658;29;20301;-75
2022/04/02 12:47:10;;;;;;;;;;;1.50;99.90;;;;;;4936284;29;20018;-75
2022/04/02 12:49:41;;;;;;;;;;;1.50;99.90;;;;;;4920155;29;20130;-75
2022/04/02 12:52:14;;;;;;;;;;;1.60;99.90;;;;;;4933152;29;19922;-75
2022/04/02 12:54:50;;;;;;;;;;;1.60;99.90;;;;;;4947100;29;19923;-74
2022/04/02 12:57:23;;;;;;;;;;;1.60;99.90;;;;;;4954085;29;19923;-74
2022/04/02 12:59:51;;;;;;;;;;;1.70;99.90;;;;;;4953916;28;20131;-74
2022/04/02 13:02:24;;;;;;;;;;;1.70;99.90;;;;;;4936355;29;20017;-74
2022/04/02 13:04:57;;;;;;;;;;;1.70;99.90;;;;;;4942473;29;19929;-74
2022/04/02 13:07:25;;;;;;;;;;;1.70;99.90;;;;;;4934765;29;19933;-74
2022/04/02 13:09:57;;;;;;;;;;;1.70;99.90;;;;;;4919654;29;20305;-74
2022/04/02 13:12:28;;;;;;;;;;;1.70;99.90;;;;;;4936677;29;19928;-74
2022/04/02 13:14:58;;;;;;;;;;;1.70;99.90;;;;;;4921205;29;19962;-74
2022/04/02 13:17:38;;;;;;;;;;;1.80;99.90;;;;;;4934431;29;19929;-75
2022/04/02 13:20:29;;;;;;;;;;;1.90;99.90;;;;;;4935401;29;20346;-75
2022/04/02 13:22:57;;;;;;;;;;;2.00;99.90;;;;;;4920240;29;20374;-75
2022/04/02 13:25:24;;;;;;;;;;;2.00;99.90;;;;;;4945463;29;19926;-75
2022/04/02 13:27:56;;;;;;;;;;;2.00;99.90;;;;;;4938433;29;19922;-75
2022/04/02 13:30:31;;;;;;;;;;;2.00;99.90;;;;;;4933512;29;20312;-75
2022/04/02 13:33:21;;;;;;;;;;;2.00;99.90;;;;;;4943438;29;20609;-75
2022/04/02 13:36:09;;;;;;;;;;;1.90;99.90;;;;;;4936850;29;19923;-75
2022/04/02 13:38:51;;;;;;;;;;;1.80;99.90;;;;;;4939959;29;19936;-76
2022/04/02 13:41:38;;;;;;;;;;;1.70;99.90;;;;;;4937829;28;20397;-76
2022/04/02 13:44:15;;;;;;;;;;;1.70;99.90;;;;;;4950821;29;19922;-76
2022/04/02 13:46:43;;;;;;;;;;;1.70;99.90;;;;;;4953172;29;19922;-76
2022/04/02 13:49:11;;;;;;;;;;;1.80;99.90;;;;;;4941771;29;19931;-76
2022/04/02 13:51:39;;;;;;;;;;;1.80;99.90;;;;;;4935867;29;20300;-76
2022/04/02 13:54:15;;;;;;;;;;;2.10;99.90;;;;;;4939847;29;20016;-76
2022/04/02 13:56:54;;;;;;;;;;;2.20;99.90;;;;;;4923259;29;19974;-76
2022/04/02 13:59:25;;;;;;;;;;;2.00;99.90;;;;;;4930112;29;19968;-76
2022/04/02 14:01:53;;;;;;;;;;;1.90;99.90;;;;;;4926692;29;20014;-76
2022/04/02 14:04:32;;;;;;;;;;;1.90;99.90;;;;;;4921838;29;19931;-76
2022/04/02 14:07:01;;;;;;;;;;;1.80;99.90;;;;;;4946706;29;19986;-75
2022/04/02 14:09:29;;;;;;;;;;;1.70;99.90;;;;;;4911494;29;19929;-76
2022/04/02 14:12:04;;;;;;;;;;;1.60;99.90;;;;;;4926760;29;20303;-75
2022/04/02 14:14:53;;;;;;;;;;;1.60;99.90;;;;;;4944658;29;19937;-75
2022/04/02 14:17:28;;;;;;;;;;;1.50;99.90;;;;;;4921436;29;20021;-75
2022/04/02 14:20:04;;;;;;;;;;;1.40;99.90;;;;;;4914644;29;20020;-75
2022/04/02 14:22:42;;;;;;;;;;;1.20;99.90;;;;;;4937797;29;19930;-75
2022/04/02 14:25:19;;;;;;;;;;;1.20;99.90;;;;;;4927441;29;19922;-75
2022/04/02 14:28:09;;;;;;;;;;;1.20;99.90;;;;;;4933661;29;20335;-75
2022/04/02 14:30:47;;;;;;;;;;;1.00;99.90;;;;;;4930721;29;20437;-75
2022/04/02 14:33:37;;;;;;;;;;;1.00;99.90;;;;;;4937676;29;19956;-75
2022/04/02 14:36:23;;;;;;;;;;;1.00;99.90;;;;;;4935273;29;19926;-75
2022/04/02 14:39:08;;;;;;;;;;;1.00;99.90;;;;;;4936537;29;19970;-75
2022/04/02 14:41:54;;;;;;;;;;;1.00;99.90;;;;;;4926480;29;19922;-75
2022/04/02 14:44:25;;;;;;;;;;;1.00;99.90;;;;;;4946847;29;19922;-74
2022/04/02 14:47:09;;;;;;;;;;;1.00;99.90;;;;;;4926307;29;19923;-74
2022/04/02 14:49:55;;;;;;;;;;;1.00;99.90;;;;;;4921478;29;20453;-74
2022/04/02 14:52:21;;;;;;;;;;;0.90;99.90;;;;;;4923239;29;20293;-75
2022/04/02 14:54:59;;;;;;;;;;;0.90;99.90;;;;;;4944218;29;20009;-75
2022/04/02 14:57:59;;;;;;;;;;;0.90;99.90;;;;;;4953365;29;19923;-74
2022/04/02 15:00:37;;;;;;;;;;;0.80;99.90;;;;;;4948219;28;19978;-75
2022/04/02 15:03:13;;;;;;;;;;;0.90;99.90;;;;;;4943283;29;19972;-75
2022/04/02 15:06:04;;;;;;;;;;;0.90;99.90;;;;;;4918183;29;20092;-75
2022/04/02 15:08:46;;;;;;;;;;;0.90;99.90;;;;;;4914165;29;20370;-75
2022/04/02 15:11:14;;;;;;;;;;;1.00;99.90;;;;;;4904552;29;19977;-75
2022/04/02 15:13:51;;;;;;;;;;;1.00;99.90;;;;;;4937933;29;19978;-74
2022/04/02 15:16:24;;;;;;;;;;;1.00;99.90;;;;;;4933005;29;20013;-75